Time;durP1;ratioP1;P1;durP2;ratioP2;P2;SDS_P1;SDS_P2;PMS_P1;PMS_P2;Temp;Humidity;BMP_temperature;BMP_pressure;BME280_temperature;BME280_humidity;BME280_pressure;Samples;Min_cycle;Max_cycle;Signal;HPM_P1;HPM_P2
2023/11/11 00:01:30;;;;;;;7.70;2.40;;;;;;;6.15;100.00;99757.94;4962865;28;20042;-94
2023/11/11 00:03:58;;;;;;;4.75;1.75;;;;;;;6.19;100.00;99764.59;4959275;28;20049;-96
2023/11/11 00:06:27;;;;;;;9.30;2.10;;;;;;;6.13;100.00;99772.97;4989102;28;20042;-95
2023/11/11 00:08:56;;;;;;;7.78;2.05;;;;;;;6.12;100.00;99776.56;4968246;28;20030;-95
2023/11/11 00:11:24;;;;;;;10.10;2.72;;;;;;;6.05;100.00;99776.25;4962436;28;20606;-92
2023/11/11 00:13:56;;;;;;;14.70;5.97;;;;;;;6.10;100.00;99786.34;4960087;28;20034;-92
2023/11/11 00:16:25;;;;;;;5.43;3.17;;;;;;;6.14;100.00;99787.78;4981431;28;20368;-92
2023/11/11 00:18:55;;;;;;;8.82;4.10;;;;;;;6.18;100.00;99799.66;4971617;28;20057;-90
2023/11/11 00:21:25;;;;;;;7.43;3.15;;;;;;;6.22;100.00;99799.41;4956149;28;20132;-91
2023/11/11 00:23:56;;;;;;;13.80;6.68;;;;;;;6.22;100.00;99805.47;4944912;28;20062;-92
2023/11/11 00:26:24;;;;;;;13.02;4.63;;;;;;;6.26;100.00;99804.25;4939442;28;20026;-91
2023/11/11 00:28:52;;;;;;;8.60;2.88;;;;;;;6.24;100.00;99808.81;4955915;28;20034;-92
2023/11/11 00:31:23;;;;;;;12.65;5.57;;;;;;;6.23;100.00;99801.88;4993994;28;20124;-92
2023/11/11 00:33:54;;;;;;;11.48;4.75;;;;;;;6.18;100.00;99811.97;4955361;28;20181;-92
2023/11/11 00:36:42;;;;;;;7.65;4.03;;;;;;;6.20;100.00;99825.78;4990703;28;20042;-92
2023/11/11 00:39:21;;;;;;;11.30;2.83;;;;;;;6.20;100.00;99825.78;4967296;28;20038;-92
2023/11/11 00:42:04;;;;;;;8.07;4.00;;;;;;;6.25;100.00;99828.84;4953264;28;20031;-91
2023/11/11 00:44:33;;;;;;;7.80;2.50;;;;;;;6.29;100.00;99826.78;4950182;28;20038;-92
2023/11/11 00:47:17;;;;;;;;;;;;;;;;;;;;;
2023/11/11 00:50:08;;;;;;;6.22;2.60;;;;;;;6.31;100.00;99838.81;4996776;28;20030;-91
2023/11/11 00:52:38;;;;;;;13.38;3.63;;;;;;;6.34;100.00;99850.81;4950582;28;20065;-91
2023/11/11 00:55:07;;;;;;;11.60;3.30;;;;;;;6.36;100.00;99840.19;4957354;28;20074;-92
2023/11/11 00:57:39;;;;;;;10.00;3.70;;;;;;;6.38;100.00;99838.28;4946199;28;20167;-90
2023/11/11 01:00:31;;;;;;;8.18;2.35;;;;;;;6.36;100.00;99833.16;4941538;28;20038;-92
2023/11/11 01:03:00;;;;;;;5.53;2.15;;;;;;;6.36;100.00;99837.56;4974430;28;20030;-91
2023/11/11 01:05:32;;;;;;;8.48;4.85;;;;;;;6.33;100.00;99830.81;4937731;28;20030;-91
2023/11/11 01:08:01;;;;;;;8.25;3.38;;;;;;;6.38;100.00;99847.00;4939199;28;20499;-92
2023/11/11 01:10:40;;;;;;;10.65;3.85;;;;;;;6.37;100.00;99832.19;4942977;28;20139;-92
2023/11/11 01:13:15;;;;;;;11.07;3.30;;;;;;;6.39;100.00;99821.56;4966249;28;20109;-92
2023/11/11 01:15:59;;;;;;;19.85;8.15;;;;;;;6.33;100.00;99815.91;4961812;28;20034;-95
2023/11/11 01:18:42;;;;;;;14.65;5.55;;;;;;;6.29;100.00;99811.84;4974725;28;20038;-92
2023/11/11 01:21:23;;;;;;;30.15;14.32;;;;;;;6.20;100.00;99784.63;4950207;28;20058;-93
2023/11/11 01:24:18;;;;;;;16.35;7.82;;;;;;;6.19;100.00;99782.97;4971312;28;20103;-93
2023/11/11 01:27:10;;;;;;;12.30;6.20;;;;;;;6.22;100.00;99776.63;4961978;28;20030;-93
2023/11/11 01:33:12;;;;;;;18.67;8.38;;;;;;;6.16;100.00;99785.00;4970036;28;20129;-92
2023/11/11 01:36:18;;;;;;;;;;;;;;;;;;;;;
2023/11/11 01:39:09;;;;;;;13.55;5.05;;;;;;;6.08;100.00;99773.38;4967518;28;20038;-93
2023/11/11 01:42:07;;;;;;;7.35;1.63;;;;;;;6.16;100.00;99788.44;4964584;28;20046;-93
2023/11/11 01:44:50;;;;;;;7.15;1.70;;;;;;;6.17;100.00;99802.41;4962934;28;20042;-93
2023/11/11 01:48:01;;;;;;;;;;;;;;;;;;;;;
2023/11/11 01:50:56;;;;;;;7.85;1.17;;;;;;;6.14;100.00;99818.41;4975139;28;20057;-93
2023/11/11 01:53:25;;;;;;;3.97;1.27;;;;;;;6.13;100.00;99798.41;4988132;28;20474;-92
2023/11/11 01:56:12;;;;;;;5.97;1.80;;;;;;;6.11;100.00;99808.19;4967743;28;20042;-93
2023/11/11 01:59:01;;;;;;;9.65;1.48;;;;;;;6.11;100.00;99811.66;4972324;28;20081;-92
2023/11/11 02:01:31;;;;;;;8.40;1.70;;;;;;;6.13;100.00;99812.34;4951688;28;20399;-93
2023/11/11 02:04:02;;;;;;;16.38;6.25;;;;;;;6.15;100.00;99814.81;4964801;28;20085;-92
2023/11/11 02:06:55;;;;;;;6.85;1.23;;;;;;;6.13;100.00;99814.16;4959015;28;20066;-93
2023/11/11 02:09:41;;;;;;;7.40;1.50;;;;;;;6.11;100.00;99811.66;4984365;28;20111;-92
2023/11/11 02:12:29;;;;;;;5.50;1.13;;;;;;;6.12;100.00;99815.09;4939175;28;20042;-92
2023/11/11 02:15:05;;;;;;;6.82;1.67;;;;;;;6.06;100.00;99803.34;4976967;28;20030;-93
2023/11/11 02:17:40;;;;;;;7.40;1.55;;;;;;;6.01;100.00;99800.22;4985910;28;20042;-93
2023/11/11 02:20:42;;;;;;;;;;;;;;;5.98;100.00;99798.72;4959727;28;20065;-92
2023/11/11 02:23:22;;;;;;;13.82;1.77;;;;;;;5.99;100.00;99800.38;4982488;28;19925;-91
2023/11/11 02:25:56;;;;;;;8.23;2.45;;;;;;;5.94;100.00;99794.69;4966939;28;20046;-92
2023/11/11 02:28:34;;;;;;;9.65;2.00;;;;;;;5.91;100.00;99794.97;4978224;28;20038;-93
2023/11/11 02:31:14;;;;;;;7.22;1.90;;;;;;;5.77;100.00;99791.69;4980833;28;20123;-93
2023/11/11 02:33:43;;;;;;;9.45;1.85;;;;;;;5.77;100.00;99801.34;4983439;28;20034;-93
2023/11/11 02:36:11;;;;;;;6.50;1.90;;;;;;;5.73;100.00;99790.31;4963526;28;20042;-93
2023/11/11 02:38:52;;;;;;;7.72;1.40;;;;;;;5.79;100.00;99795.03;4964593;28;20054;-92
2023/11/11 02:41:24;;;;;;;12.50;1.90;;;;;;;5.81;100.00;99793.09;4965859;28;20040;-93
2023/11/11 02:43:52;;;;;;;12.52;2.08;;;;;;;5.89;100.00;99804.75;4978846;28;20112;-92
2023/11/11 02:46:20;;;;;;;17.23;2.90;;;;;;;5.90;100.00;99793.28;4963196;28;20149;-92
2023/11/11 02:48:48;;;;;;;10.00;1.83;;;;;;;5.93;100.00;99804.34;4965198;28;20026;-93
2023/11/11 02:51:16;;;;;;;5.72;1.42;;;;;;;5.96;100.00;99793.59;4967121;28;20386;-94
2023/11/11 02:53:46;;;;;;;10.30;1.65;;;;;;;5.92;100.00;99778.25;4964966;28;20041;-92
2023/11/11 02:56:16;;;;;;;3.58;1.33;;;;;;;5.82;100.00;99784.28;4964716;28;20125;-92
2023/11/11 02:58:46;;;;;;;4.38;1.27;;;;;;;5.73;100.00;99792.09;4958863;28;20030;-93
2023/11/11 03:01:16;;;;;;;4.43;1.50;;;;;;;5.62;100.00;99780.72;4963968;28;20053;-92
2023/11/11 03:03:44;;;;;;;4.22;1.17;;;;;;;5.51;100.00;99773.72;4964124;28;20054;-93
2023/11/11 03:06:12;;;;;;;8.75;1.35;;;;;;;5.43;100.00;99768.31;4968065;28;20045;-93
2023/11/11 03:08:44;;;;;;;8.55;2.45;;;;;;;5.47;100.00;99748.75;4963063;28;20038;-91
2023/11/11 03:11:15;;;;;;;14.75;4.20;;;;;;;5.57;100.00;99754.84;4977915;28;20121;-95
2023/11/11 03:13:46;;;;;;;15.88;4.93;;;;;;;5.56;100.00;99752.38;4976402;28;20034;-82
2023/11/11 03:16:14;;;;;;;11.52;2.65;;;;;;;5.51;100.00;99744.88;4963699;28;20386;-93
2023/11/11 03:18:47;;;;;;;10.52;2.03;;;;;;;5.51;100.00;99730.97;4973497;28;20117;-95
2023/11/11 03:21:22;;;;;;;7.10;1.75;;;;;;;5.63;100.00;99726.47;4958496;28;20050;-94
2023/11/11 03:23:55;;;;;;;11.55;2.25;;;;;;;5.65;100.00;99728.03;4940870;28;21254;-95
2023/11/11 03:26:25;;;;;;;11.75;1.40;;;;;;;5.69;100.00;99739.06;4940593;28;20102;-93
2023/11/11 03:28:52;;;;;;;10.20;1.17;;;;;;;5.66;100.00;99734.06;4959145;28;20491;-93
2023/11/11 03:31:20;;;;;;;6.70;1.02;;;;;;;5.69;100.00;99741.69;4939181;28;20509;-93
2023/11/11 03:33:48;;;;;;;5.72;1.60;;;;;;;5.65;100.00;99738.50;4943444;28;20391;-93
2023/11/11 03:36:16;;;;;;;7.97;1.38;;;;;;;5.67;100.00;99738.38;4945744;28;20049;-92
2023/11/11 03:38:43;;;;;;;7.90;2.05;;;;;;;5.68;100.00;99734.78;4934335;28;20498;-92
2023/11/11 03:41:13;;;;;;;13.77;1.13;;;;;;;5.70;100.00;99735.50;4965480;28;20517;-91
2023/11/11 03:43:43;;;;;;;5.95;0.88;;;;;;;5.57;100.00;99740.94;4945751;28;20041;-92
2023/11/11 03:46:12;;;;;;;6.55;1.38;;;;;;;5.36;100.00;99743.56;4959103;28;20035;-94
2023/11/11 03:48:40;;;;;;;3.38;1.17;;;;;;;5.16;100.00;99754.72;4972691;28;21419;-95
2023/11/11 03:51:10;;;;;;;6.13;1.13;;;;;;;5.05;100.00;99758.22;4936518;28;20049;-95
2023/11/11 03:53:39;;;;;;;4.38;1.35;;;;;;;4.94;100.00;99763.50;4945109;28;20044;-95
2023/11/11 03:56:08;;;;;;;5.80;1.20;;;;;;;4.84;100.00;99766.88;4945163;28;20030;-95
2023/11/11 03:58:36;;;;;;;7.18;1.15;;;;;;;4.77;100.00;99777.97;4959808;28;20026;-95
2023/11/11 04:01:09;;;;;;;8.95;1.50;;;;;;;4.71;100.00;99766.22;4958140;28;20088;-94
2023/11/11 04:03:39;;;;;;;6.18;1.27;;;;;;;4.64;100.00;99778.09;4960536;28;20042;-94
2023/11/11 04:06:09;;;;;;;8.38;1.52;;;;;;;4.52;100.00;99777.31;4936871;28;20026;-95
2023/11/11 04:08:39;;;;;;;10.32;1.42;;;;;;;4.52;100.00;99788.63;4939141;28;20050;-95
2023/11/11 04:11:08;;;;;;;4.00;1.02;;;;;;;4.45;100.00;99790.88;4939421;28;20030;-95
2023/11/11 04:13:40;;;;;;;3.75;0.85;;;;;;;4.41;100.00;99791.25;4963257;28;20073;-94
2023/11/11 04:16:09;;;;;;;4.60;0.85;;;;;;;4.30;100.00;99799.94;4941041;28;20034;-95
2023/11/11 04:18:37;;;;;;;4.57;1.30;;;;;;;4.22;100.00;99798.72;4962129;28;20034;-94
2023/11/11 04:21:05;;;;;;;15.05;1.17;;;;;;;4.16;100.00;99800.97;4962604;28;20050;-95
2023/11/11 04:23:36;;;;;;;7.15;1.58;;;;;;;4.19;100.00;99804.22;4976574;28;20465;-94
2023/11/11 04:26:05;;;;;;;6.85;1.88;;;;;;;4.20;100.00;99799.81;4963652;28;20041;-94
2023/11/11 04:28:35;;;;;;;8.63;1.73;;;;;;;4.24;100.00;99797.81;4972321;28;20084;-95
2023/11/11 04:31:03;;;;;;;6.63;1.17;;;;;;;4.22;100.00;99803.97;4963649;28;20072;-95
2023/11/11 04:33:32;;;;;;;7.55;1.20;;;;;;;4.31;100.00;99807.66;4970239;28;20501;-95
2023/11/11 04:36:00;;;;;;;6.57;1.02;;;;;;;4.29;100.00;99801.72;4964460;28;20033;-95
2023/11/11 04:38:29;;;;;;;6.95;1.23;;;;;;;4.36;100.00;99801.22;4973187;28;20029;-93
2023/11/11 04:40:57;;;;;;;8.05;1.52;;;;;;;4.33;100.00;99807.56;4973721;28;20541;-94
2023/11/11 04:43:27;;;;;;;8.77;1.23;;;;;;;4.33;100.00;99810.97;4975412;28;20045;-95
2023/11/11 04:45:55;;;;;;;4.50;1.02;;;;;;;4.29;100.00;99809.56;4963530;28;20486;-95
2023/11/11 04:48:22;;;;;;;4.72;1.45;;;;;;;4.31;100.00;99798.97;4977595;28;20117;-95
2023/11/11 04:50:50;;;;;;;9.82;1.40;;;;;;;4.32;100.00;99800.63;4976918;28;20247;-95
2023/11/11 04:53:18;;;;;;;6.97;1.08;;;;;;;4.40;100.00;99810.50;4960250;28;20034;-95
2023/11/11 04:55:47;;;;;;;8.93;0.82;;;;;;;4.34;100.00;99801.34;4980716;28;20050;-95
2023/11/11 04:58:17;;;;;;;5.47;1.02;;;;;;;4.35;100.00;99800.41;4980308;28;20141;-95
2023/11/11 05:00:45;;;;;;;7.45;1.10;;;;;;;4.36;100.00;99803.84;4963849;28;20490;-95
2023/11/11 05:03:14;;;;;;;3.47;1.38;;;;;;;4.39;100.00;99799.22;4962886;28;20104;-94
2023/11/11 05:05:42;;;;;;;19.88;10.40;;;;;;;4.38;100.00;99805.38;4964035;28;20482;-93
2023/11/11 05:08:10;;;;;;;9.82;7.75;;;;;;;4.43;100.00;99798.00;4962525;28;20049;-95
2023/11/11 05:10:38;;;;;;;11.35;5.43;;;;;;;4.45;100.00;99803.13;4964807;28;20040;-95
2023/11/11 05:13:08;;;;;;;18.65;7.90;;;;;;;4.53;100.00;99800.75;4967957;28;20072;-95
2023/11/11 05:15:42;;;;;;;10.82;4.28;;;;;;;4.60;100.00;99801.09;4988700;28;20033;-94
2023/11/11 05:18:13;;;;;;;14.10;2.60;;;;;;;4.58;100.00;99797.75;4964613;28;20045;-94
2023/11/11 05:20:42;;;;;;;17.02;6.93;;;;;;;4.56;100.00;99808.34;4955721;28;20497;-95
2023/11/11 05:23:12;;;;;;;7.82;3.38;;;;;;;4.54;100.00;99804.22;4982474;28;20499;-94
2023/11/11 05:25:42;;;;;;;11.20;2.08;;;;;;;4.50;100.00;99805.38;4976466;28;20096;-95
2023/11/11 05:28:13;;;;;;;54.10;24.75;;;;;;;4.44;100.00;99791.81;4948754;28;20044;-94
2023/11/11 05:30:43;;;;;;;38.95;20.48;;;;;;;4.40;100.00;99792.19;4967339;28;20041;-94
2023/11/11 05:33:13;;;;;;;10.30;3.45;;;;;;;4.38;100.00;99789.69;4953909;28;20041;-94
2023/11/11 05:35:42;;;;;;;7.82;2.28;;;;;;;4.40;100.00;99784.34;4961800;28;20389;-95
2023/11/11 05:38:11;;;;;;;8.65;1.83;;;;;;;4.38;100.00;99784.44;4965886;28;20472;-94
2023/11/11 05:40:39;;;;;;;11.20;4.05;;;;;;;4.37;100.00;99787.19;4965877;28;20026;-95
2023/11/11 05:43:08;;;;;;;9.05;2.22;;;;;;;4.34;100.00;99772.56;4979257;28;20382;-94
2023/11/11 05:45:36;;;;;;;6.60;2.10;;;;;;;4.21;100.00;99789.22;4960187;28;20042;-94
2023/11/11 05:48:06;;;;;;;5.20;1.30;;;;;;;3.98;100.00;99780.56;4961192;28;20033;-95
2023/11/11 05:50:36;;;;;;;4.25;1.00;;;;;;;3.87;100.00;99775.31;4959605;28;20120;-94
2023/11/11 05:53:06;;;;;;;6.57;1.67;;;;;;;3.88;100.00;99766.50;4960938;28;20030;-94
2023/11/11 05:55:36;;;;;;;7.15;1.40;;;;;;;3.93;100.00;99769.63;4975827;28;20108;-95
2023/11/11 05:58:05;;;;;;;3.72;1.35;;;;;;;3.96;100.00;99774.59;4964014;28;20077;-95
2023/11/11 06:00:33;;;;;;;8.52;1.75;;;;;;;3.95;100.00;99771.16;4964095;28;20034;-95
2023/11/11 06:03:00;;;;;;;5.72;1.58;;;;;;;3.98;100.00;99757.03;4975667;28;20050;-95
2023/11/11 06:05:28;;;;;;;9.43;1.85;;;;;;;3.99;100.00;99752.59;4989362;28;20141;-94
2023/11/11 06:07:56;;;;;;;7.53;1.50;;;;;;;3.99;100.00;99753.44;4959694;28;20030;-95
2023/11/11 06:10:24;;;;;;;6.03;0.95;;;;;;;3.79;100.00;99749.75;4964897;28;20127;-95
2023/11/11 06:12:53;;;;;;;9.65;1.77;;;;;;;3.51;100.00;99742.22;4966487;28;20093;-95
2023/11/11 06:15:22;;;;;;;9.55;1.60;;;;;;;3.42;100.00;99741.16;4990739;28;20165;-94
2023/11/11 06:17:49;;;;;;;4.40;1.80;;;;;;;3.49;100.00;99748.53;4971031;28;21374;-94
2023/11/11 06:20:19;;;;;;;7.40;1.40;;;;;;;3.47;100.00;99757.28;4965558;28;20034;-95
2023/11/11 06:22:53;;;;;;;4.13;1.60;;;;;;;3.53;100.00;99773.47;4985848;28;20387;-94
2023/11/11 06:25:22;;;;;;;4.50;1.88;;;;;;;3.51;100.00;99770.13;4978818;28;20046;-94
2023/11/11 06:27:49;;;;;;;7.53;1.30;;;;;;;3.35;100.00;99766.91;4981398;28;20084;-95
2023/11/11 06:30:19;;;;;;;9.50;1.85;;;;;;;3.34;100.00;99753.94;4979759;28;20042;-96
2023/11/11 06:32:51;;;;;;;4.88;1.20;;;;;;;3.35;100.00;99759.06;4975391;28;20176;-94
2023/11/11 06:35:23;;;;;;;6.72;1.35;;;;;;;3.37;100.00;99758.94;4961325;28;20046;-96
2023/11/11 06:37:53;;;;;;;7.28;2.15;;;;;;;3.40;100.00;99763.09;4962360;28;20030;-96
2023/11/11 06:40:24;;;;;;;8.05;1.60;;;;;;;3.35;100.00;99763.44;4983209;28;20060;-95
2023/11/11 06:42:55;;;;;;;7.47;1.65;;;;;;;3.32;100.00;99769.75;4976839;28;20068;-95
2023/11/11 06:45:25;;;;;;;5.47;1.30;;;;;;;3.30;100.00;99786.44;4982345;28;20061;-95
2023/11/11 06:47:54;;;;;;;5.47;1.88;;;;;;;3.31;100.00;99780.31;5000918;28;20038;-92
2023/11/11 06:50:24;;;;;;;8.98;1.42;;;;;;;3.33;100.00;99781.00;4993542;28;20040;-95
2023/11/11 06:52:52;;;;;;;4.93;1.52;;;;;;;3.32;100.00;99779.34;4981639;28;20030;-95
2023/11/11 06:55:20;;;;;;;5.45;1.63;;;;;;;3.33;100.00;99788.84;4971029;28;20031;-95
2023/11/11 06:57:47;;;;;;;5.85;1.75;;;;;;;3.28;100.00;99791.78;4972387;28;20045;-94
2023/11/11 07:00:18;;;;;;;7.97;2.10;;;;;;;3.30;100.00;99792.53;4962273;28;20035;-95
2023/11/11 07:02:47;;;;;;;11.30;1.75;;;;;;;3.28;100.00;99789.19;4964410;28;20061;-95
2023/11/11 07:05:15;;;;;;;5.60;1.35;;;;;;;3.30;100.00;99787.28;4980573;28;20160;-94
2023/11/11 07:07:43;;;;;;;5.72;1.40;;;;;;;3.26;100.00;99787.63;4980892;28;20057;-95
2023/11/11 07:10:11;;;;;;;8.88;1.48;;;;;;;3.28;100.00;99789.19;4956817;28;20116;-95
2023/11/11 07:12:39;;;;;;;4.10;1.10;;;;;;;3.30;100.00;99794.28;4963845;28;20041;-95
2023/11/11 07:15:10;;;;;;;5.80;1.50;;;;;;;3.34;100.00;99796.56;4975197;28;20061;-95
2023/11/11 07:17:42;;;;;;;4.82;1.10;;;;;;;3.31;100.00;99804.63;4992730;28;20026;-96
2023/11/11 07:20:12;;;;;;;3.90;1.25;;;;;;;3.30;100.00;99802.97;4956302;28;20034;-95
2023/11/11 07:22:40;;;;;;;4.07;1.27;;;;;;;3.28;100.00;99796.19;4975458;28;20499;-94
2023/11/11 07:25:11;;;;;;;6.28;1.60;;;;;;;3.28;100.00;99794.41;4986323;28;20034;-96
2023/11/11 07:27:39;;;;;;;1.75;1.05;;;;;;;3.21;100.00;99795.81;4963677;28;20037;-94
2023/11/11 07:30:10;;;;;;;8.00;1.67;;;;;;;3.25;100.00;99801.66;4967665;28;20101;-95
2023/11/11 07:32:38;;;;;;;8.82;1.60;;;;;;;3.20;100.00;99809.81;4970323;28;20041;-95
2023/11/11 07:35:10;;;;;;;6.90;1.15;;;;;;;3.19;100.00;99806.38;4964128;28;20058;-94
2023/11/11 07:37:39;;;;;;;8.15;1.40;;;;;;;3.16;100.00;99809.22;4967294;28;20097;-94
2023/11/11 07:40:09;;;;;;;4.30;2.63;;;;;;;3.17;100.00;99810.88;4990005;28;20076;-94
2023/11/11 07:42:39;;;;;;;8.52;2.55;;;;;;;3.15;100.00;99810.16;4979196;28;20034;-94
2023/11/11 07:45:09;;;;;;;5.63;0.88;;;;;;;3.17;100.00;99821.31;4960990;28;20076;-95
2023/11/11 07:47:41;;;;;;;5.70;1.23;;;;;;;3.16;100.00;99831.88;4978393;28;20034;-94
2023/11/11 07:50:09;;;;;;;8.55;1.17;;;;;;;3.18;100.00;99822.16;4956742;28;20478;-95
2023/11/11 07:52:37;;;;;;;8.32;1.63;;;;;;;3.18;100.00;99830.84;4961006;28;20033;-95
2023/11/11 07:55:05;;;;;;;5.07;1.42;;;;;;;3.16;100.00;99819.66;4975020;28;20041;-95
2023/11/11 07:57:33;;;;;;;8.65;1.48;;;;;;;3.05;100.00;99822.19;4965121;28;20494;-95
2023/11/11 08:00:03;;;;;;;2.90;1.10;;;;;;;3.03;100.00;99819.69;4966911;28;20115;-95
2023/11/11 08:02:36;;;;;;;17.20;1.33;;;;;;;2.95;100.00;99814.19;4994492;28;20033;-95
2023/11/11 08:05:08;;;;;;;10.77;1.10;;;;;;;2.87;100.00;99817.34;4977694;28;20180;-94
2023/11/11 08:07:35;;;;;;;12.60;1.20;;;;;;;2.66;100.00;99809.31;4958987;28;20034;-95
2023/11/11 08:10:06;;;;;;;31.73;5.30;;;;;;;2.51;100.00;99819.88;4963691;28;20026;-95
2023/11/11 08:12:35;;;;;;;15.23;3.90;;;;;;;2.42;100.00;99816.13;4962900;28;20105;-95
2023/11/11 08:15:06;;;;;;;15.35;4.38;;;;;;;2.52;100.00;99808.47;4979335;28;20042;-95
2023/11/11 08:17:35;;;;;;;6.07;2.50;;;;;;;2.56;100.00;99807.34;4977702;28;20581;-94
2023/11/11 08:20:03;;;;;;;8.93;2.83;;;;;;;2.60;100.00;99794.91;4960747;28;20113;-96
2023/11/11 08:22:33;;;;;;;7.82;2.25;;;;;;;2.62;100.00;99800.84;4967160;28;20054;-95
2023/11/11 08:25:01;;;;;;;9.43;3.08;;;;;;;2.69;100.00;99799.47;4962985;28;20045;-95
2023/11/11 08:27:30;;;;;;;14.38;3.08;;;;;;;2.77;100.00;99798.91;4958378;28;20027;-95
2023/11/11 08:30:00;;;;;;;9.95;3.25;;;;;;;2.93;100.00;99792.59;4974822;28;20085;-95
2023/11/11 08:32:30;;;;;;;9.18;3.40;;;;;;;3.02;100.00;99791.09;4975290;28;20035;-96
2023/11/11 08:34:59;;;;;;;5.90;2.75;;;;;;;3.12;100.00;99791.25;4975563;28;20041;-95
2023/11/11 08:37:28;;;;;;;6.47;4.03;;;;;;;3.17;100.00;99792.59;4962703;28;20042;-95
2023/11/11 08:39:56;;;;;;;9.38;2.92;;;;;;;3.20;100.00;99791.53;4974058;28;20030;-95
2023/11/11 08:42:24;;;;;;;10.77;4.10;;;;;;;3.27;100.00;99794.50;4957210;28;20566;-96
2023/11/11 08:44:57;;;;;;;15.85;7.88;;;;;;;3.28;100.00;99796.19;4942288;28;20038;-96
2023/11/11 08:47:27;;;;;;;10.88;3.65;;;;;;;3.34;100.00;99804.41;4962493;28;20069;-95
2023/11/11 08:49:57;;;;;;;6.35;1.98;;;;;;;3.36;100.00;99788.59;4963605;28;20051;-96
2023/11/11 08:52:28;;;;;;;5.80;1.30;;;;;;;3.34;100.00;99782.69;4940680;28;20266;-96
2023/11/11 08:54:57;;;;;;;5.53;2.03;;;;;;;3.31;100.00;99778.50;4959311;28;20066;-95
2023/11/11 08:57:27;;;;;;;12.60;4.90;;;;;;;3.31;100.00;99769.84;4964581;28;20038;-96
2023/11/11 08:59:56;;;;;;;17.83;3.70;;;;;;;3.28;100.00;99776.13;4988314;28;20031;-95
2023/11/11 09:02:24;;;;;;;57.20;20.25;;;;;;;3.16;100.00;99772.66;4941722;28;20039;-95
2023/11/11 09:04:53;;;;;;;10.25;4.57;;;;;;;3.21;100.00;99769.69;4957258;28;20042;-96
2023/11/11 09:07:22;;;;;;;7.40;2.33;;;;;;;3.31;100.00;99772.47;4971980;28;20065;-95
2023/11/11 09:09:50;;;;;;;6.53;1.63;;;;;;;3.33;100.00;99768.78;4960343;28;20120;-95
2023/11/11 09:12:23;;;;;;;4.75;1.88;;;;;;;3.37;100.00;99764.16;4985086;28;20106;-96
2023/11/11 09:14:52;;;;;;;3.58;1.58;;;;;;;3.39;100.00;99761.44;4962890;28;20073;-95
2023/11/11 09:17:22;;;;;;;4.07;1.40;;;;;;;3.50;100.00;99764.09;4956019;28;20038;-94
2023/11/11 09:19:52;;;;;;;8.95;1.58;;;;;;;3.54;100.00;99773.34;4963220;28;20034;-95
2023/11/11 09:22:19;;;;;;;3.67;1.40;;;;;;;3.56;100.00;99774.06;4944355;28;20139;-96
2023/11/11 09:24:48;;;;;;;8.32;1.88;;;;;;;3.49;100.00;99761.59;4944730;28;20117;-95
2023/11/11 09:27:16;;;;;;;7.53;2.90;;;;;;;3.53;100.00;99774.31;4945754;28;20682;-95
2023/11/11 09:29:44;;;;;;;6.18;2.97;;;;;;;3.57;100.00;99770.50;4947666;28;20030;-96
2023/11/11 09:32:12;;;;;;;11.93;4.00;;;;;;;3.69;100.00;99784.44;4971968;28;20049;-96
2023/11/11 09:34:43;;;;;;;12.00;5.00;;;;;;;3.74;100.00;99781.47;4982667;28;20107;-94
2023/11/11 09:37:11;;;;;;;14.20;5.30;;;;;;;3.66;100.00;99779.44;4976924;28;20053;-94
2023/11/11 09:39:40;;;;;;;10.05;3.85;;;;;;;3.56;100.00;99781.06;4948597;28;20062;-94
2023/11/11 09:42:07;;;;;;;7.00;3.88;;;;;;;3.59;100.00;99784.31;4960452;28;20387;-94
2023/11/11 09:44:36;;;;;;;4.20;2.33;;;;;;;3.60;100.00;99785.94;4944204;28;20038;-93
2023/11/11 09:47:06;;;;;;;7.18;3.15;;;;;;;3.62;100.00;99785.84;4953868;28;20049;-95
2023/11/11 09:49:34;;;;;;;5.78;2.00;;;;;;;3.56;100.00;99791.53;4980571;28;20108;-94
2023/11/11 09:52:03;;;;;;;12.40;2.25;;;;;;;3.63;100.00;99795.34;4968283;28;20038;-93
2023/11/11 09:54:34;;;;;;;6.75;1.38;;;;;;;3.62;100.00;99798.91;4942683;28;20042;-94
2023/11/11 09:57:02;;;;;;;7.65;2.88;;;;;;;3.66;100.00;99802.13;4938806;28;20122;-94
2023/11/11 09:59:32;;;;;;;6.30;1.67;;;;;;;3.65;100.00;99797.81;4943649;28;20101;-96
2023/11/11 10:02:02;;;;;;;4.68;1.55;;;;;;;3.70;100.00;99796.56;4959001;28;20041;-95
2023/11/11 10:04:30;;;;;;;7.03;3.65;;;;;;;3.74;100.00;99801.56;4968761;28;20055;-94
2023/11/11 10:06:58;;;;;;;6.78;1.58;;;;;;;3.87;100.00;99794.44;4958063;28;20035;-95
2023/11/11 10:09:26;;;;;;;14.07;1.98;;;;;;;3.94;100.00;99806.09;4956700;28;20030;-95
2023/11/11 10:11:54;;;;;;;17.65;9.25;;;;;;;4.03;100.00;99798.50;4957862;28;20037;-95
2023/11/11 10:14:26;;;;;;;4.80;2.40;;;;;;;4.12;100.00;99807.41;4965615;28;20045;-95
2023/11/11 10:16:58;;;;;;;7.13;1.50;;;;;;;4.18;100.00;99807.78;4992880;28;20053;-94
2023/11/11 10:19:27;;;;;;;9.98;1.75;;;;;;;4.26;100.00;99806.34;4948071;28;20038;-95
2023/11/11 10:21:57;;;;;;;14.00;1.65;;;;;;;4.38;100.00;99802.78;4956297;28;20077;-94
2023/11/11 10:24:26;;;;;;;7.03;1.23;;;;;;;4.46;100.00;99807.41;4948544;28;20069;-96
2023/11/11 10:26:57;;;;;;;5.90;2.13;;;;;;;4.53;100.00;99802.53;4993915;28;20041;-95
2023/11/11 10:29:27;;;;;;;15.15;8.05;;;;;;;4.66;100.00;99808.47;4947362;28;20034;-95
2023/11/11 10:31:56;;;;;;;6.47;1.65;;;;;;;4.76;100.00;99794.63;4962658;28;20660;-95
2023/11/11 10:34:24;;;;;;;14.70;2.03;;;;;;;4.85;100.00;99796.53;4964430;28;20029;-96
2023/11/11 10:36:52;;;;;;;6.57;1.85;;;;;;;4.99;100.00;99797.19;4951829;28;20045;-95
2023/11/11 10:39:20;;;;;;;6.93;1.77;;;;;;;5.08;100.00;99785.97;4972402;28;20038;-95
2023/11/11 10:41:49;;;;;;;11.68;2.03;;;;;;;5.20;100.00;99786.75;4942775;28;20133;-94
2023/11/11 10:44:15;;;;;;;8.25;1.58;;;;;;;5.28;100.00;99791.38;4941610;28;20049;-95
2023/11/11 10:46:40;;;;;;;13.35;1.85;;;;;;;5.34;100.00;99796.94;4965609;28;20129;-93
2023/11/11 10:49:10;;;;;;;5.70;1.42;;;;;;;5.43;100.00;99799.78;4944536;28;20077;-95
2023/11/11 10:51:37;;;;;;;12.60;1.63;;;;;;;5.52;100.00;99791.13;4943813;28;20046;-95
2023/11/11 10:54:08;;;;;;;10.52;1.80;;;;;;;5.64;100.00;99780.59;4953791;28;20030;-95
2023/11/11 10:56:40;;;;;;;9.38;1.77;;;;;;;5.73;100.00;99777.19;4967307;28;20050;-95
2023/11/11 10:59:11;;;;;;;6.55;1.52;;;;;;;5.82;100.00;99776.41;4945927;28;20092;-95
2023/11/11 11:01:41;;;;;;;7.88;1.85;;;;;;;5.82;100.00;99758.06;4986002;28;20030;-95
2023/11/11 11:04:08;;;;;;;5.32;1.25;;;;;;;5.82;100.00;99765.91;4938644;28;20037;-94
2023/11/11 11:06:42;;;;;;;7.53;2.10;;;;;;;5.91;100.00;99774.78;4956395;28;20033;-96
2023/11/11 11:09:26;;;;;;;7.68;2.65;;;;;;;5.97;100.00;99765.59;4970599;28;20027;-92
2023/11/11 11:12:16;;;;;;;;;;;;;;;;;;;;;
2023/11/11 11:14:52;;;;;;;8.02;1.75;;;;;;;6.01;100.00;99758.25;4966889;28;20483;-90
2023/11/11 11:17:47;;;;;;;3.58;1.40;;;;;;;6.05;100.00;99743.97;4967611;28;20506;-93
2023/11/11 11:20:18;;;;;;;11.65;2.00;;;;;;;6.06;100.00;99750.88;4942455;28;20039;-94
2023/11/11 11:22:45;;;;;;;9.90;1.75;;;;;;;6.01;100.00;99734.66;4993770;28;20054;-95
2023/11/11 11:25:33;;;;;;;9.95;2.03;;;;;;;6.02;100.00;99721.41;4965729;28;20033;-94
2023/11/11 11:28:11;;;;;;;7.90;1.75;;;;;;;5.99;100.00;99713.78;4971855;28;20479;-93
2023/11/11 11:30:50;;;;;;;11.05;2.22;;;;;;;5.98;100.00;99720.00;4965970;28;20117;-93
2023/11/11 11:33:22;;;;;;;11.57;1.88;;;;;;;5.94;100.00;99706.31;4975321;28;20057;-94
2023/11/11 11:35:50;;;;;;;8.45;2.20;;;;;;;5.98;100.00;99706.06;4972433;28;20038;-92
2023/11/11 11:38:27;;;;;;;10.98;2.13;;;;;;;6.01;100.00;99698.75;4966634;28;20034;-92
2023/11/11 11:41:01;;;;;;;8.55;1.60;;;;;;;6.01;100.00;99680.41;4970207;28;20045;-92
2023/11/11 11:43:31;;;;;;;9.85;2.35;;;;;;;5.98;100.00;99674.56;4980815;28;20030;-93
2023/11/11 11:45:58;;;;;;;12.20;2.22;;;;;;;6.02;100.00;99674.16;4966471;28;20033;-92
2023/11/11 11:48:29;;;;;;;8.63;3.10;;;;;;;6.03;100.00;99667.97;4972145;28;20069;-93
2023/11/11 11:51:08;;;;;;;9.60;2.90;;;;;;;6.03;100.00;99659.28;4969141;28;20038;-92
2023/11/11 11:53:35;;;;;;;11.02;2.45;;;;;;;5.97;100.00;99660.66;4960995;28;20032;-93
2023/11/11 11:56:01;;;;;;;10.05;2.70;;;;;;;6.00;100.00;99651.66;4974567;28;20033;-94
2023/11/11 11:58:27;;;;;;;8.65;1.95;;;;;;;6.02;100.00;99653.19;4965412;28;20040;-93
2023/11/11 12:00:53;;;;;;;7.20;1.75;;;;;;;6.02;100.00;99653.19;4978038;28;20030;-92